sensor_id;sensor_type;location;lat;lon;timestamp;temperature;humidity
67870;DHT22;54673;52.262;6.830;2023-03-01T00:02:05;15.80;43.70
67870;DHT22;54673;52.262;6.830;2023-03-01T00:04:31;15.70;43.70
67870;DHT22;54673;52.262;6.830;2023-03-01T00:06:56;15.70;43.80
67870;DHT22;54673;52.262;6.830;2023-03-01T00:09:22;15.70;43.60
67870;DHT22;54673;52.262;6.830;2023-03-01T00:11:47;15.70;43.50
67870;DHT22;54673;52.262;6.830;2023-03-01T00:14:13;15.60;43.50
67870;DHT22;54673;52.262;6.830;2023-03-01T00:16:41;15.70;43.50
67870;DHT22;54673;52.262;6.830;2023-03-01T00:19:12;15.60;43.40
67870;DHT22;54673;52.262;6.830;2023-03-01T00:21:38;15.60;43.30
67870;DHT22;54673;52.262;6.830;2023-03-01T00:24:04;15.60;43.30
67870;DHT22;54673;52.262;6.830;2023-03-01T00:26:30;15.60;43.30
67870;DHT22;54673;52.262;6.830;2023-03-01T00:28:57;15.60;43.30
67870;DHT22;54673;52.262;6.830;2023-03-01T00:31:25;15.50;43.30
67870;DHT22;54673;52.262;6.830;2023-03-01T00:33:55;15.50;43.30
67870;DHT22;54673;52.262;6.830;2023-03-01T00:36:23;15.50;43.20
67870;DHT22;54673;52.262;6.830;2023-03-01T00:38:49;15.50;43.10
67870;DHT22;54673;52.262;6.830;2023-03-01T00:41:17;15.50;43.10
67870;DHT22;54673;52.262;6.830;2023-03-01T00:43:43;15.40;43.10
67870;DHT22;54673;52.262;6.830;2023-03-01T00:46:17;15.40;43.00
67870;DHT22;54673;52.262;6.830;2023-03-01T00:48:44;15.40;43.00
67870;DHT22;54673;52.262;6.830;2023-03-01T00:51:12;15.40;43.10
67870;DHT22;54673;52.262;6.830;2023-03-01T00:53:38;15.40;43.00
67870;DHT22;54673;52.262;6.830;2023-03-01T00:56:05;15.30;42.90
67870;DHT22;54673;52.262;6.830;2023-03-01T00:58:31;15.30;42.90
67870;DHT22;54673;52.262;6.830;2023-03-01T01:00:57;15.30;42.90
67870;DHT22;54673;52.262;6.830;2023-03-01T01:03:23;15.30;42.80
67870;DHT22;54673;52.262;6.830;2023-03-01T01:05:51;15.30;42.80
67870;DHT22;54673;52.262;6.830;2023-03-01T01:08:17;15.30;42.90
67870;DHT22;54673;52.262;6.830;2023-03-01T01:10:44;15.20;42.70
67870;DHT22;54673;52.262;6.830;2023-03-01T01:13:10;15.20;42.80
67870;DHT22;54673;52.262;6.830;2023-03-01T01:15:36;15.20;42.70
67870;DHT22;54673;52.262;6.830;2023-03-01T01:18:01;15.20;42.70
67870;DHT22;54673;52.262;6.830;2023-03-01T01:20:27;15.20;42.80
67870;DHT22;54673;52.262;6.830;2023-03-01T01:22:53;15.10;42.60
67870;DHT22;54673;52.262;6.830;2023-03-01T01:25:19;15.20;42.60
67870;DHT22;54673;52.262;6.830;2023-03-01T01:27:44;15.10;42.50
67870;DHT22;54673;52.262;6.830;2023-03-01T01:30:10;15.10;42.50
67870;DHT22;54673;52.262;6.830;2023-03-01T01:32:36;15.10;42.50
67870;DHT22;54673;52.262;6.830;2023-03-01T01:35:02;15.10;42.60
67870;DHT22;54673;52.262;6.830;2023-03-01T01:37:28;15.10;42.60
67870;DHT22;54673;52.262;6.830;2023-03-01T01:39:59;15.00;42.60
67870;DHT22;54673;52.262;6.830;2023-03-01T01:42:25;15.10;42.60
67870;DHT22;54673;52.262;6.830;2023-03-01T01:47:51;15.00;42.60
67870;DHT22;54673;52.262;6.830;2023-03-01T01:50:18;15.00;42.70
67870;DHT22;54673;52.262;6.830;2023-03-01T01:52:45;15.00;42.70
67870;DHT22;54673;52.262;6.830;2023-03-01T01:55:17;15.00;42.80
67870;DHT22;54673;52.262;6.830;2023-03-01T01:58:04;15.00;42.70
67870;DHT22;54673;52.262;6.830;2023-03-01T02:00:32;15.00;42.70
67870;DHT22;54673;52.262;6.830;2023-03-01T02:03:22;15.00;42.70
67870;DHT22;54673;52.262;6.830;2023-03-01T02:05:51;15.00;42.70
67870;DHT22;54673;52.262;6.830;2023-03-01T02:08:20;15.00;42.70
67870;DHT22;54673;52.262;6.830;2023-03-01T02:10:48;15.00;42.70
67870;DHT22;54673;52.262;6.830;2023-03-01T02:13:14;14.90;42.60
67870;DHT22;54673;52.262;6.830;2023-03-01T02:15:40;14.90;42.60
67870;DHT22;54673;52.262;6.830;2023-03-01T02:18:07;14.90;42.50
67870;DHT22;54673;52.262;6.830;2023-03-01T02:20:58;14.90;42.50
67870;DHT22;54673;52.262;6.830;2023-03-01T02:23:27;14.90;42.50
67870;DHT22;54673;52.262;6.830;2023-03-01T02:26:21;14.90;42.50
67870;DHT22;54673;52.262;6.830;2023-03-01T02:28:50;14.80;42.30
67870;DHT22;54673;52.262;6.830;2023-03-01T02:31:18;14.90;42.50
67870;DHT22;54673;52.262;6.830;2023-03-01T02:34:03;14.80;42.50
67870;DHT22;54673;52.262;6.830;2023-03-01T02:36:35;14.80;42.40
67870;DHT22;54673;52.262;6.830;2023-03-01T02:39:03;14.80;42.40
67870;DHT22;54673;52.262;6.830;2023-03-01T02:41:34;14.80;42.30
67870;DHT22;54673;52.262;6.830;2023-03-01T02:44:01;14.80;42.20
67870;DHT22;54673;52.262;6.830;2023-03-01T02:46:27;14.70;42.20
67870;DHT22;54673;52.262;6.830;2023-03-01T02:48:55;14.70;42.20
67870;DHT22;54673;52.262;6.830;2023-03-01T02:54:33;14.70;42.20
67870;DHT22;54673;52.262;6.830;2023-03-01T02:57:01;14.70;42.10
67870;DHT22;54673;52.262;6.830;2023-03-01T02:59:30;14.70;42.00
67870;DHT22;54673;52.262;6.830;2023-03-01T03:01:56;14.70;42.10
67870;DHT22;54673;52.262;6.830;2023-03-01T03:04:22;14.60;42.00
67870;DHT22;54673;52.262;6.830;2023-03-01T03:06:49;14.70;42.10
67870;DHT22;54673;52.262;6.830;2023-03-01T03:09:15;14.70;42.90
67870;DHT22;54673;52.262;6.830;2023-03-01T03:11:41;14.70;42.00
67870;DHT22;54673;52.262;6.830;2023-03-01T03:14:12;14.70;42.00
67870;DHT22;54673;52.262;6.830;2023-03-01T03:16:50;14.70;42.10
67870;DHT22;54673;52.262;6.830;2023-03-01T03:19:17;14.70;42.20
67870;DHT22;54673;52.262;6.830;2023-03-01T03:21:44;14.70;42.30
67870;DHT22;54673;52.262;6.830;2023-03-01T03:24:10;14.60;42.30
67870;DHT22;54673;52.262;6.830;2023-03-01T03:26:35;14.60;42.30
67870;DHT22;54673;52.262;6.830;2023-03-01T03:29:01;14.60;42.30
67870;DHT22;54673;52.262;6.830;2023-03-01T03:31:27;14.60;42.40
67870;DHT22;54673;52.262;6.830;2023-03-01T03:33:53;14.60;42.30
67870;DHT22;54673;52.262;6.830;2023-03-01T03:36:22;14.60;42.40
67870;DHT22;54673;52.262;6.830;2023-03-01T03:38:48;14.60;42.20
67870;DHT22;54673;52.262;6.830;2023-03-01T03:41:14;14.60;42.30
67870;DHT22;54673;52.262;6.830;2023-03-01T03:43:40;14.60;42.30
67870;DHT22;54673;52.262;6.830;2023-03-01T03:46:08;14.60;42.30
67870;DHT22;54673;52.262;6.830;2023-03-01T03:48:44;14.80;42.30
67870;DHT22;54673;52.262;6.830;2023-03-01T03:51:15;14.60;42.10
67870;DHT22;54673;52.262;6.830;2023-03-01T03:53:42;14.50;42.00
67870;DHT22;54673;52.262;6.830;2023-03-01T03:56:08;14.60;42.10
67870;DHT22;54673;52.262;6.830;2023-03-01T03:58:34;14.50;42.00
67870;DHT22;54673;52.262;6.830;2023-03-01T04:00:59;14.50;42.10
67870;DHT22;54673;52.262;6.830;2023-03-01T04:03:27;14.50;41.90
67870;DHT22;54673;52.262;6.830;2023-03-01T04:05:53;14.50;41.90
67870;DHT22;54673;52.262;6.830;2023-03-01T04:08:21;14.50;41.90
67870;DHT22;54673;52.262;6.830;2023-03-01T04:10:49;14.50;41.90
67870;DHT22;54673;52.262;6.830;2023-03-01T04:13:20;14.50;41.80
67870;DHT22;54673;52.262;6.830;2023-03-01T04:15:51;14.50;41.80
67870;DHT22;54673;52.262;6.830;2023-03-01T04:18:19;14.50;41.80
67870;DHT22;54673;52.262;6.830;2023-03-01T04:20:45;14.40;41.60
67870;DHT22;54673;52.262;6.830;2023-03-01T04:23:19;14.50;41.70
67870;DHT22;54673;52.262;6.830;2023-03-01T04:25:51;14.50;41.70
67870;DHT22;54673;52.262;6.830;2023-03-01T04:30:47;14.50;41.80
67870;DHT22;54673;52.262;6.830;2023-03-01T04:33:13;14.50;41.80
67870;DHT22;54673;52.262;6.830;2023-03-01T04:35:39;14.50;41.80
67870;DHT22;54673;52.262;6.830;2023-03-01T04:38:05;14.50;41.90
67870;DHT22;54673;52.262;6.830;2023-03-01T04:40:31;14.50;42.80
67870;DHT22;54673;52.262;6.830;2023-03-01T04:42:57;14.50;42.00
67870;DHT22;54673;52.262;6.830;2023-03-01T04:45:23;14.50;42.00
67870;DHT22;54673;52.262;6.830;2023-03-01T04:47:49;14.40;41.90
67870;DHT22;54673;52.262;6.830;2023-03-01T04:50:18;14.40;42.00
67870;DHT22;54673;52.262;6.830;2023-03-01T04:52:46;14.40;42.00
67870;DHT22;54673;52.262;6.830;2023-03-01T04:55:12;14.40;42.00
67870;DHT22;54673;52.262;6.830;2023-03-01T04:57:38;14.40;42.00
67870;DHT22;54673;52.262;6.830;2023-03-01T05:00:06;14.40;42.10
67870;DHT22;54673;52.262;6.830;2023-03-01T05:02:59;14.40;42.10
67870;DHT22;54673;52.262;6.830;2023-03-01T05:05:33;14.50;42.10
67870;DHT22;54673;52.262;6.830;2023-03-01T05:08:01;14.40;42.10
67870;DHT22;54673;52.262;6.830;2023-03-01T05:10:29;14.40;42.00
67870;DHT22;54673;52.262;6.830;2023-03-01T05:12:56;14.40;42.00
67870;DHT22;54673;52.262;6.830;2023-03-01T05:15:23;14.30;42.10
67870;DHT22;54673;52.262;6.830;2023-03-01T05:17:51;14.40;42.20
67870;DHT22;54673;52.262;6.830;2023-03-01T05:20:17;14.30;42.10
67870;DHT22;54673;52.262;6.830;2023-03-01T05:22:43;14.30;42.00
67870;DHT22;54673;52.262;6.830;2023-03-01T05:25:09;14.30;42.10
67870;DHT22;54673;52.262;6.830;2023-03-01T05:27:35;14.30;42.10
67870;DHT22;54673;52.262;6.830;2023-03-01T05:30:01;14.30;42.10
67870;DHT22;54673;52.262;6.830;2023-03-01T05:32:41;14.30;42.10
67870;DHT22;54673;52.262;6.830;2023-03-01T05:35:09;14.30;42.10
67870;DHT22;54673;52.262;6.830;2023-03-01T05:37:45;14.30;42.10
67870;DHT22;54673;52.262;6.830;2023-03-01T05:40:13;14.30;42.10
67870;DHT22;54673;52.262;6.830;2023-03-01T05:42:56;14.30;42.10
67870;DHT22;54673;52.262;6.830;2023-03-01T05:45:23;14.30;42.20
67870;DHT22;54673;52.262;6.830;2023-03-01T05:47:50;14.30;42.00
67870;DHT22;54673;52.262;6.830;2023-03-01T05:50:17;14.30;42.90
67870;DHT22;54673;52.262;6.830;2023-03-01T05:52:45;14.20;42.00
67870;DHT22;54673;52.262;6.830;2023-03-01T05:55:11;14.20;42.00
67870;DHT22;54673;52.262;6.830;2023-03-01T05:57:36;14.30;42.00
67870;DHT22;54673;52.262;6.830;2023-03-01T06:00:02;14.20;42.00
67870;DHT22;54673;52.262;6.830;2023-03-01T06:02:28;14.20;42.00
67870;DHT22;54673;52.262;6.830;2023-03-01T06:04:54;14.30;42.20
67870;DHT22;54673;52.262;6.830;2023-03-01T06:07:20;14.20;42.00
67870;DHT22;54673;52.262;6.830;2023-03-01T06:09:46;14.20;42.00
67870;DHT22;54673;52.262;6.830;2023-03-01T06:12:11;14.20;42.00
67870;DHT22;54673;52.262;6.830;2023-03-01T06:14:37;14.20;42.00
67870;DHT22;54673;52.262;6.830;2023-03-01T06:17:03;14.20;42.00
67870;DHT22;54673;52.262;6.830;2023-03-01T06:19:28;14.20;42.00
67870;DHT22;54673;52.262;6.830;2023-03-01T06:21:54;14.10;42.80
67870;DHT22;54673;52.262;6.830;2023-03-01T06:24:20;14.20;42.10
67870;DHT22;54673;52.262;6.830;2023-03-01T06:26:45;14.10;41.90
67870;DHT22;54673;52.262;6.830;2023-03-01T06:29:11;14.20;42.00
67870;DHT22;54673;52.262;6.830;2023-03-01T06:31:36;14.10;42.00
67870;DHT22;54673;52.262;6.830;2023-03-01T06:34:02;14.20;41.90
67870;DHT22;54673;52.262;6.830;2023-03-01T06:36:28;14.10;41.90
67870;DHT22;54673;52.262;6.830;2023-03-01T06:38:53;14.10;42.00
67870;DHT22;54673;52.262;6.830;2023-03-01T06:41:19;14.10;42.90
67870;DHT22;54673;52.262;6.830;2023-03-01T06:43:44;14.10;41.90
67870;DHT22;54673;52.262;6.830;2023-03-01T06:46:10;14.10;42.00
67870;DHT22;54673;52.262;6.830;2023-03-01T06:48:35;14.10;42.10
67870;DHT22;54673;52.262;6.830;2023-03-01T06:51:01;14.00;41.90
67870;DHT22;54673;52.262;6.830;2023-03-01T06:53:27;14.10;42.10
67870;DHT22;54673;52.262;6.830;2023-03-01T06:55:55;14.00;42.10
67870;DHT22;54673;52.262;6.830;2023-03-01T06:58:21;14.00;42.00
67870;DHT22;54673;52.262;6.830;2023-03-01T07:00:46;14.00;42.10
67870;DHT22;54673;52.262;6.830;2023-03-01T07:03:12;14.10;42.00
67870;DHT22;54673;52.262;6.830;2023-03-01T07:05:37;14.10;42.10
67870;DHT22;54673;52.262;6.830;2023-03-01T07:08:03;14.00;42.10
67870;DHT22;54673;52.262;6.830;2023-03-01T07:10:28;14.00;42.10
67870;DHT22;54673;52.262;6.830;2023-03-01T07:12:57;14.00;42.20
67870;DHT22;54673;52.262;6.830;2023-03-01T07:15:23;14.00;42.20
67870;DHT22;54673;52.262;6.830;2023-03-01T07:17:49;14.00;42.20
67870;DHT22;54673;52.262;6.830;2023-03-01T07:20:16;13.90;42.30
67870;DHT22;54673;52.262;6.830;2023-03-01T07:22:42;13.90;42.20
67870;DHT22;54673;52.262;6.830;2023-03-01T07:25:09;13.90;42.30
67870;DHT22;54673;52.262;6.830;2023-03-01T07:27:34;13.90;42.30
67870;DHT22;54673;52.262;6.830;2023-03-01T07:30:00;13.90;42.40
67870;DHT22;54673;52.262;6.830;2023-03-01T07:32:25;13.90;42.40
67870;DHT22;54673;52.262;6.830;2023-03-01T07:34:51;13.90;42.50
67870;DHT22;54673;52.262;6.830;2023-03-01T07:37:17;13.90;42.50
67870;DHT22;54673;52.262;6.830;2023-03-01T07:39:42;13.90;42.80
67870;DHT22;54673;52.262;6.830;2023-03-01T07:42:08;13.90;42.60
67870;DHT22;54673;52.262;6.830;2023-03-01T07:44:34;13.90;42.70
67870;DHT22;54673;52.262;6.830;2023-03-01T07:47:03;13.90;42.70
67870;DHT22;54673;52.262;6.830;2023-03-01T07:49:29;13.90;42.80
67870;DHT22;54673;52.262;6.830;2023-03-01T07:51:54;13.80;42.80
67870;DHT22;54673;52.262;6.830;2023-03-01T07:54:20;13.80;42.90
67870;DHT22;54673;52.262;6.830;2023-03-01T07:56:46;13.80;42.90
67870;DHT22;54673;52.262;6.830;2023-03-01T07:59:11;13.80;42.90
67870;DHT22;54673;52.262;6.830;2023-03-01T08:01:37;13.80;43.00
67870;DHT22;54673;52.262;6.830;2023-03-01T08:04:02;13.70;43.00
67870;DHT22;54673;52.262;6.830;2023-03-01T08:06:30;13.80;43.10
67870;DHT22;54673;52.262;6.830;2023-03-01T08:08:56;13.80;43.20
67870;DHT22;54673;52.262;6.830;2023-03-01T08:11:21;13.80;43.30
67870;DHT22;54673;52.262;6.830;2023-03-01T08:13:48;13.80;43.30
67870;DHT22;54673;52.262;6.830;2023-03-01T08:16:15;13.80;43.40
67870;DHT22;54673;52.262;6.830;2023-03-01T08:18:41;13.80;43.50
67870;DHT22;54673;52.262;6.830;2023-03-01T08:21:09;13.80;43.50
67870;DHT22;54673;52.262;6.830;2023-03-01T08:23:36;13.80;43.50
67870;DHT22;54673;52.262;6.830;2023-03-01T08:26:11;13.80;43.50
67870;DHT22;54673;52.262;6.830;2023-03-01T08:28:37;13.80;43.60
67870;DHT22;54673;52.262;6.830;2023-03-01T08:31:12;13.80;43.60
67870;DHT22;54673;52.262;6.830;2023-03-01T08:33:38;13.80;43.70
67870;DHT22;54673;52.262;6.830;2023-03-01T08:36:05;13.80;43.70
67870;DHT22;54673;52.262;6.830;2023-03-01T08:38:32;13.80;43.70
67870;DHT22;54673;52.262;6.830;2023-03-01T08:41:02;13.80;43.80
67870;DHT22;54673;52.262;6.830;2023-03-01T08:43:28;13.80;43.90
67870;DHT22;54673;52.262;6.830;2023-03-01T08:45:54;13.80;44.10
67870;DHT22;54673;52.262;6.830;2023-03-01T08:48:20;13.80;44.00
67870;DHT22;54673;52.262;6.830;2023-03-01T08:50:45;13.80;44.10
67870;DHT22;54673;52.262;6.830;2023-03-01T08:53:11;13.80;44.10
67870;DHT22;54673;52.262;6.830;2023-03-01T08:55:36;13.80;44.20
67870;DHT22;54673;52.262;6.830;2023-03-01T08:58:02;13.90;44.30
67870;DHT22;54673;52.262;6.830;2023-03-01T09:00:28;13.90;44.30
67870;DHT22;54673;52.262;6.830;2023-03-01T09:02:53;13.90;44.40
67870;DHT22;54673;52.262;6.830;2023-03-01T09:05:19;13.80;44.40
67870;DHT22;54673;52.262;6.830;2023-03-01T09:07:44;13.90;44.50
67870;DHT22;54673;52.262;6.830;2023-03-01T09:10:10;13.90;44.50
67870;DHT22;54673;52.262;6.830;2023-03-01T09:12:36;13.90;44.50
67870;DHT22;54673;52.262;6.830;2023-03-01T09:15:01;13.90;44.60
67870;DHT22;54673;52.262;6.830;2023-03-01T09:17:27;13.90;44.60
67870;DHT22;54673;52.262;6.830;2023-03-01T09:19:53;13.90;44.60
67870;DHT22;54673;52.262;6.830;2023-03-01T09:22:18;13.90;44.70
67870;DHT22;54673;52.262;6.830;2023-03-01T09:24:44;14.00;44.80
67870;DHT22;54673;52.262;6.830;2023-03-01T09:27:09;13.90;44.80
67870;DHT22;54673;52.262;6.830;2023-03-01T09:29:36;14.00;44.80
67870;DHT22;54673;52.262;6.830;2023-03-01T09:32:02;14.00;44.90
67870;DHT22;54673;52.262;6.830;2023-03-01T09:34:27;14.00;44.90
67870;DHT22;54673;52.262;6.830;2023-03-01T09:36:53;14.00;44.80
67870;DHT22;54673;52.262;6.830;2023-03-01T09:39:19;14.70;45.30
67870;DHT22;54673;52.262;6.830;2023-03-01T09:42:00;14.00;44.90
67870;DHT22;54673;52.262;6.830;2023-03-01T09:47:21;14.00;44.90
67870;DHT22;54673;52.262;6.830;2023-03-01T09:50:01;14.00;45.00
67870;DHT22;54673;52.262;6.830;2023-03-01T09:52:46;14.00;45.00
67870;DHT22;54673;52.262;6.830;2023-03-01T09:55:16;14.10;45.20
67870;DHT22;54673;52.262;6.830;2023-03-01T09:57:50;14.00;45.30
67870;DHT22;54673;52.262;6.830;2023-03-01T10:02:52;14.10;45.60
67870;DHT22;54673;52.262;6.830;2023-03-01T10:08:34;14.10;46.30
67870;DHT22;54673;52.262;6.830;2023-03-01T10:11:08;14.10;46.40
67870;DHT22;54673;52.262;6.830;2023-03-01T10:16:50;14.10;46.50
67870;DHT22;54673;52.262;6.830;2023-03-01T10:19:24;14.10;46.50
67870;DHT22;54673;52.262;6.830;2023-03-01T10:21:53;14.10;46.50
67870;DHT22;54673;52.262;6.830;2023-03-01T10:24:19;14.10;46.50
67870;DHT22;54673;52.262;6.830;2023-03-01T10:27:03;14.20;46.50
67870;DHT22;54673;52.262;6.830;2023-03-01T10:29:37;14.10;46.50
67870;DHT22;54673;52.262;6.830;2023-03-01T10:32:05;14.20;46.70
67870;DHT22;54673;52.262;6.830;2023-03-01T10:34:34;14.10;46.60
67870;DHT22;54673;52.262;6.830;2023-03-01T10:37:19;14.10;46.60
67870;DHT22;54673;52.262;6.830;2023-03-01T10:42:32;14.10;46.60
67870;DHT22;54673;52.262;6.830;2023-03-01T10:47:40;14.20;46.70
67870;DHT22;54673;52.262;6.830;2023-03-01T10:50:18;14.20;46.70
67870;DHT22;54673;52.262;6.830;2023-03-01T10:52:57;14.20;46.70
67870;DHT22;54673;52.262;6.830;2023-03-01T10:55:38;14.20;46.70
67870;DHT22;54673;52.262;6.830;2023-03-01T11:00:52;14.20;46.60
67870;DHT22;54673;52.262;6.830;2023-03-01T11:03:26;14.20;46.60
67870;DHT22;54673;52.262;6.830;2023-03-01T11:06:02;14.20;46.60
67870;DHT22;54673;52.262;6.830;2023-03-01T11:08:45;14.20;46.60
67870;DHT22;54673;52.262;6.830;2023-03-01T11:11:29;14.20;46.60
67870;DHT22;54673;52.262;6.830;2023-03-01T11:14:17;14.20;46.60
67870;DHT22;54673;52.262;6.830;2023-03-01T11:16:45;14.20;46.50
67870;DHT22;54673;52.262;6.830;2023-03-01T11:22:24;14.20;46.50
67870;DHT22;54673;52.262;6.830;2023-03-01T11:24:42;14.20;46.50
67870;DHT22;54673;52.262;6.830;2023-03-01T11:27:24;14.20;46.40
67870;DHT22;54673;52.262;6.830;2023-03-01T11:30:04;14.20;46.40
67870;DHT22;54673;52.262;6.830;2023-03-01T11:32:39;14.20;46.40
67870;DHT22;54673;52.262;6.830;2023-03-01T11:35:18;14.30;46.50
67870;DHT22;54673;52.262;6.830;2023-03-01T11:40:47;14.30;46.80
67870;DHT22;54673;52.262;6.830;2023-03-01T11:43:42;14.30;46.80
67870;DHT22;54673;52.262;6.830;2023-03-01T12:09:13;14.40;43.60
67870;DHT22;54673;52.262;6.830;2023-03-01T12:18:10;14.40;43.80
67870;DHT22;54673;52.262;6.830;2023-03-01T12:20:30;14.40;45.10
67870;DHT22;54673;52.262;6.830;2023-03-01T12:29:18;14.60;44.90
67870;DHT22;54673;52.262;6.830;2023-03-01T12:44:47;14.80;44.70
67870;DHT22;54673;52.262;6.830;2023-03-01T12:50:00;14.90;44.90
67870;DHT22;54673;52.262;6.830;2023-03-01T12:52:39;14.90;44.70
67870;DHT22;54673;52.262;6.830;2023-03-01T12:58:05;14.90;44.80
67870;DHT22;54673;52.262;6.830;2023-03-01T13:00:51;15.00;45.00
67870;DHT22;54673;52.262;6.830;2023-03-01T13:06:54;15.20;45.20
67870;DHT22;54673;52.262;6.830;2023-03-01T13:15:31;15.50;45.10
67870;DHT22;54673;52.262;6.830;2023-03-01T13:21:09;15.60;45.10
67870;DHT22;54673;52.262;6.830;2023-03-01T13:23:37;14.80;44.70
67870;DHT22;54673;52.262;6.830;2023-03-01T13:26:12;15.70;45.20
67870;DHT22;54673;52.262;6.830;2023-03-01T13:33:56;16.00;45.10
67870;DHT22;54673;52.262;6.830;2023-03-01T13:46:50;16.10;45.10
67870;DHT22;54673;52.262;6.830;2023-03-01T13:49:19;16.20;45.20
67870;DHT22;54673;52.262;6.830;2023-03-01T13:51:47;16.20;45.10
67870;DHT22;54673;52.262;6.830;2023-03-01T13:54:15;16.30;45.10
67870;DHT22;54673;52.262;6.830;2023-03-01T13:56:41;16.30;45.10
67870;DHT22;54673;52.262;6.830;2023-03-01T13:59:18;16.30;45.00
67870;DHT22;54673;52.262;6.830;2023-03-01T14:01:44;16.40;45.10
67870;DHT22;54673;52.262;6.830;2023-03-01T14:04:22;17.20;45.50
67870;DHT22;54673;52.262;6.830;2023-03-01T14:06:49;16.40;45.00
67870;DHT22;54673;52.262;6.830;2023-03-01T14:09:23;16.50;45.00
67870;DHT22;54673;52.262;6.830;2023-03-01T14:14:56;16.60;45.00
67870;DHT22;54673;52.262;6.830;2023-03-01T14:17:42;16.70;45.00
67870;DHT22;54673;52.262;6.830;2023-03-01T14:20:17;16.70;45.00
67870;DHT22;54673;52.262;6.830;2023-03-01T14:22:44;16.70;44.60
67870;DHT22;54673;52.262;6.830;2023-03-01T14:25:23;16.70;44.70
67870;DHT22;54673;52.262;6.830;2023-03-01T14:28:11;16.80;44.70
67870;DHT22;54673;52.262;6.830;2023-03-01T14:30:41;16.80;44.70
67870;DHT22;54673;52.262;6.830;2023-03-01T14:33:26;16.90;44.80
67870;DHT22;54673;52.262;6.830;2023-03-01T14:41:11;17.00;44.70
67870;DHT22;54673;52.262;6.830;2023-03-01T14:43:46;17.00;44.70
67870;DHT22;54673;52.262;6.830;2023-03-01T14:46:21;17.10;44.80
67870;DHT22;54673;52.262;6.830;2023-03-01T14:48:56;17.10;44.80
67870;DHT22;54673;52.262;6.830;2023-03-01T14:51:23;17.10;44.30
67870;DHT22;54673;52.262;6.830;2023-03-01T14:53:50;17.90;44.90
67870;DHT22;54673;52.262;6.830;2023-03-01T14:56:16;17.10;44.50
67870;DHT22;54673;52.262;6.830;2023-03-01T14:58:45;17.20;44.50
67870;DHT22;54673;52.262;6.830;2023-03-01T15:01:16;17.30;44.60
67870;DHT22;54673;52.262;6.830;2023-03-01T15:03:48;17.20;44.50
67870;DHT22;54673;52.262;6.830;2023-03-01T15:06:17;17.30;44.90
67870;DHT22;54673;52.262;6.830;2023-03-01T15:08:48;17.30;44.50
67870;DHT22;54673;52.262;6.830;2023-03-01T15:11:25;17.40;44.50
67870;DHT22;54673;52.262;6.830;2023-03-01T15:13:52;17.40;45.50
67870;DHT22;54673;52.262;6.830;2023-03-01T15:16:32;17.40;44.50
67870;DHT22;54673;52.262;6.830;2023-03-01T15:19:03;17.50;44.50
67870;DHT22;54673;52.262;6.830;2023-03-01T15:21:32;17.50;44.50
67870;DHT22;54673;52.262;6.830;2023-03-01T15:26:35;17.50;44.60
67870;DHT22;54673;52.262;6.830;2023-03-01T15:29:01;17.60;44.70
67870;DHT22;54673;52.262;6.830;2023-03-01T15:31:31;17.60;44.60
67870;DHT22;54673;52.262;6.830;2023-03-01T15:34:39;17.70;44.60
67870;DHT22;54673;52.262;6.830;2023-03-01T15:39:59;17.80;44.60
67870;DHT22;54673;52.262;6.830;2023-03-01T15:47:51;17.90;44.50
67870;DHT22;54673;52.262;6.830;2023-03-01T15:50:22;17.90;44.50
67870;DHT22;54673;52.262;6.830;2023-03-01T15:52:49;17.90;44.50
67870;DHT22;54673;52.262;6.830;2023-03-01T15:55:27;18.00;44.50
67870;DHT22;54673;52.262;6.830;2023-03-01T15:58:14;18.00;44.50
67870;DHT22;54673;52.262;6.830;2023-03-01T16:00:41;18.00;44.40
67870;DHT22;54673;52.262;6.830;2023-03-01T16:03:09;18.10;44.40
67870;DHT22;54673;52.262;6.830;2023-03-01T16:05:37;18.10;44.50
67870;DHT22;54673;52.262;6.830;2023-03-01T16:08:05;18.10;44.50
67870;DHT22;54673;52.262;6.830;2023-03-01T16:10:31;18.10;44.50
67870;DHT22;54673;52.262;6.830;2023-03-01T16:12:58;18.10;44.50
67870;DHT22;54673;52.262;6.830;2023-03-01T16:15:26;18.20;44.60
67870;DHT22;54673;52.262;6.830;2023-03-01T16:17:52;18.20;44.40
67870;DHT22;54673;52.262;6.830;2023-03-01T16:20:19;18.20;45.20
67870;DHT22;54673;52.262;6.830;2023-03-01T16:22:45;18.20;44.30
67870;DHT22;54673;52.262;6.830;2023-03-01T16:25:12;18.20;44.30
67870;DHT22;54673;52.262;6.830;2023-03-01T16:27:42;17.60;43.90
67870;DHT22;54673;52.262;6.830;2023-03-01T16:30:09;18.30;44.20
67870;DHT22;54673;52.262;6.830;2023-03-01T16:32:43;18.30;43.60
67870;DHT22;54673;52.262;6.830;2023-03-01T16:35:10;18.10;43.90
67870;DHT22;54673;52.262;6.830;2023-03-01T16:37:36;18.00;44.10
67870;DHT22;54673;52.262;6.830;2023-03-01T16:40:03;18.00;44.10
67870;DHT22;54673;52.262;6.830;2023-03-01T16:42:34;18.00;44.20
67870;DHT22;54673;52.262;6.830;2023-03-01T16:45:00;17.90;44.10
67870;DHT22;54673;52.262;6.830;2023-03-01T16:47:27;17.80;44.10
67870;DHT22;54673;52.262;6.830;2023-03-01T16:49:53;17.80;44.20
67870;DHT22;54673;52.262;6.830;2023-03-01T16:52:19;17.70;44.30
67870;DHT22;54673;52.262;6.830;2023-03-01T16:54:45;17.70;44.30
67870;DHT22;54673;52.262;6.830;2023-03-01T16:57:11;17.60;44.30
67870;DHT22;54673;52.262;6.830;2023-03-01T16:59:37;17.60;44.50
67870;DHT22;54673;52.262;6.830;2023-03-01T17:02:08;17.60;44.50
67870;DHT22;54673;52.262;6.830;2023-03-01T17:04:36;17.50;44.50
67870;DHT22;54673;52.262;6.830;2023-03-01T17:07:01;17.40;44.60
67870;DHT22;54673;52.262;6.830;2023-03-01T17:09:27;17.40;44.60
67870;DHT22;54673;52.262;6.830;2023-03-01T17:11:52;17.40;44.70
67870;DHT22;54673;52.262;6.830;2023-03-01T17:14:19;17.40;44.80
67870;DHT22;54673;52.262;6.830;2023-03-01T17:16:45;17.30;44.70
67870;DHT22;54673;52.262;6.830;2023-03-01T17:19:11;17.30;44.70
67870;DHT22;54673;52.262;6.830;2023-03-01T17:21:38;17.30;44.70
67870;DHT22;54673;52.262;6.830;2023-03-01T17:24:03;17.30;44.80
67870;DHT22;54673;52.262;6.830;2023-03-01T17:26:29;17.20;44.80
67870;DHT22;54673;52.262;6.830;2023-03-01T17:28:56;17.20;44.80
67870;DHT22;54673;52.262;6.830;2023-03-01T17:31:24;17.10;44.90
67870;DHT22;54673;52.262;6.830;2023-03-01T17:33:49;17.10;45.00
67870;DHT22;54673;52.262;6.830;2023-03-01T17:36:16;17.10;45.10
67870;DHT22;54673;52.262;6.830;2023-03-01T17:38:42;17.20;45.10
67870;DHT22;54673;52.262;6.830;2023-03-01T17:41:08;17.00;45.00
67870;DHT22;54673;52.262;6.830;2023-03-01T17:43:36;17.00;45.20
67870;DHT22;54673;52.262;6.830;2023-03-01T17:46:02;17.00;45.10
67870;DHT22;54673;52.262;6.830;2023-03-01T17:48:27;16.90;45.20
67870;DHT22;54673;52.262;6.830;2023-03-01T17:50:53;16.90;45.00
67870;DHT22;54673;52.262;6.830;2023-03-01T17:53:19;16.90;45.10
67870;DHT22;54673;52.262;6.830;2023-03-01T17:55:44;16.90;45.10
67870;DHT22;54673;52.262;6.830;2023-03-01T17:58:13;16.80;46.10